sensor_id;sensor_type;location;lat;lon;timestamp;temperature;humidity
39021;DHT22;25188;51.958;5.842;2023-07-13T00:02:21;17.20;81.80
39021;DHT22;25188;51.958;5.842;2023-07-13T00:04:47;17.10;81.80
39021;DHT22;25188;51.958;5.842;2023-07-13T00:07:13;17.10;81.80
39021;DHT22;25188;51.958;5.842;2023-07-13T00:09:40;17.10;81.90
39021;DHT22;25188;51.958;5.842;2023-07-13T00:14:49;17.10;82.20
39021;DHT22;25188;51.958;5.842;2023-07-13T00:17:15;17.10;82.30
39021;DHT22;25188;51.958;5.842;2023-07-13T00:19:41;17.00;82.40
39021;DHT22;25188;51.958;5.842;2023-07-13T00:22:07;17.00;82.70
39021;DHT22;25188;51.958;5.842;2023-07-13T00:24:32;17.00;82.80
39021;DHT22;25188;51.958;5.842;2023-07-13T00:26:58;17.00;82.90
39021;DHT22;25188;51.958;5.842;2023-07-13T00:29:25;17.00;83.00
39021;DHT22;25188;51.958;5.842;2023-07-13T00:31:51;17.00;82.90
39021;DHT22;25188;51.958;5.842;2023-07-13T00:34:17;17.00;83.00
39021;DHT22;25188;51.958;5.842;2023-07-13T00:36:42;17.00;83.10
39021;DHT22;25188;51.958;5.842;2023-07-13T00:39:08;16.90;83.10
39021;DHT22;25188;51.958;5.842;2023-07-13T00:41:34;16.90;83.10
39021;DHT22;25188;51.958;5.842;2023-07-13T00:43:59;16.90;83.30
39021;DHT22;25188;51.958;5.842;2023-07-13T00:46:29;16.90;83.30
39021;DHT22;25188;51.958;5.842;2023-07-13T00:49:00;16.90;83.40
39021;DHT22;25188;51.958;5.842;2023-07-13T00:52:20;16.80;83.40
39021;DHT22;25188;51.958;5.842;2023-07-13T00:54:37;16.80;83.50
39021;DHT22;25188;51.958;5.842;2023-07-13T00:57:07;16.80;83.40
39021;DHT22;25188;51.958;5.842;2023-07-13T00:59:35;16.80;83.40
39021;DHT22;25188;51.958;5.842;2023-07-13T01:02:02;16.80;83.50
39021;DHT22;25188;51.958;5.842;2023-07-13T01:04:28;16.80;83.60
39021;DHT22;25188;51.958;5.842;2023-07-13T01:06:54;16.70;83.70
39021;DHT22;25188;51.958;5.842;2023-07-13T01:09:20;16.70;84.30
39021;DHT22;25188;51.958;5.842;2023-07-13T01:11:46;16.70;83.90
39021;DHT22;25188;51.958;5.842;2023-07-13T01:14:12;16.70;83.90
39021;DHT22;25188;51.958;5.842;2023-07-13T01:16:39;16.60;84.00
39021;DHT22;25188;51.958;5.842;2023-07-13T01:19:13;16.60;84.20
39021;DHT22;25188;51.958;5.842;2023-07-13T01:21:44;16.60;84.30
39021;DHT22;25188;51.958;5.842;2023-07-13T01:24:15;16.60;84.30
39021;DHT22;25188;51.958;5.842;2023-07-13T01:26:40;16.60;84.50
39021;DHT22;25188;51.958;5.842;2023-07-13T01:29:06;16.60;84.60
39021;DHT22;25188;51.958;5.842;2023-07-13T01:31:33;16.50;84.50
39021;DHT22;25188;51.958;5.842;2023-07-13T01:33:58;16.50;84.50
39021;DHT22;25188;51.958;5.842;2023-07-13T01:36:24;16.50;84.60
39021;DHT22;25188;51.958;5.842;2023-07-13T01:38:50;16.40;84.90
39021;DHT22;25188;51.958;5.842;2023-07-13T01:41:16;16.40;84.90
39021;DHT22;25188;51.958;5.842;2023-07-13T01:43:42;16.40;85.20
39021;DHT22;25188;51.958;5.842;2023-07-13T01:46:08;16.40;85.20
39021;DHT22;25188;51.958;5.842;2023-07-13T01:48:33;16.30;85.30
39021;DHT22;25188;51.958;5.842;2023-07-13T01:50:59;16.30;85.60
39021;DHT22;25188;51.958;5.842;2023-07-13T01:53:25;16.30;85.80
39021;DHT22;25188;51.958;5.842;2023-07-13T01:55:50;16.20;85.90
39021;DHT22;25188;51.958;5.842;2023-07-13T01:58:16;16.20;86.00
39021;DHT22;25188;51.958;5.842;2023-07-13T02:00:41;16.20;85.90
39021;DHT22;25188;51.958;5.842;2023-07-13T02:03:07;16.10;86.10
39021;DHT22;25188;51.958;5.842;2023-07-13T02:05:32;16.10;86.30
39021;DHT22;25188;51.958;5.842;2023-07-13T02:07:58;16.10;86.60
39021;DHT22;25188;51.958;5.842;2023-07-13T02:10:24;16.10;86.70
39021;DHT22;25188;51.958;5.842;2023-07-13T02:12:50;16.10;86.70
39021;DHT22;25188;51.958;5.842;2023-07-13T02:15:17;16.10;86.80
39021;DHT22;25188;51.958;5.842;2023-07-13T02:17:43;16.00;87.00
39021;DHT22;25188;51.958;5.842;2023-07-13T02:20:08;16.00;87.00
39021;DHT22;25188;51.958;5.842;2023-07-13T02:22:35;16.00;87.70
39021;DHT22;25188;51.958;5.842;2023-07-13T02:25:01;15.90;87.60
39021;DHT22;25188;51.958;5.842;2023-07-13T02:27:26;15.90;87.60
39021;DHT22;25188;51.958;5.842;2023-07-13T02:29:53;15.90;87.90
39021;DHT22;25188;51.958;5.842;2023-07-13T02:32:18;15.90;87.90
39021;DHT22;25188;51.958;5.842;2023-07-13T02:34:44;15.80;88.30
39021;DHT22;25188;51.958;5.842;2023-07-13T02:37:10;15.80;88.50
39021;DHT22;25188;51.958;5.842;2023-07-13T02:39:36;15.80;88.60
39021;DHT22;25188;51.958;5.842;2023-07-13T02:42:01;15.80;89.50
39021;DHT22;25188;51.958;5.842;2023-07-13T02:44:27;15.70;88.70
39021;DHT22;25188;51.958;5.842;2023-07-13T02:46:53;15.70;89.10
39021;DHT22;25188;51.958;5.842;2023-07-13T02:49:18;15.70;89.00
39021;DHT22;25188;51.958;5.842;2023-07-13T02:51:44;15.70;89.30
39021;DHT22;25188;51.958;5.842;2023-07-13T02:54:10;15.70;89.60
39021;DHT22;25188;51.958;5.842;2023-07-13T02:56:37;15.70;90.10
39021;DHT22;25188;51.958;5.842;2023-07-13T02:59:04;15.70;90.00
39021;DHT22;25188;51.958;5.842;2023-07-13T03:01:30;15.70;90.10
39021;DHT22;25188;51.958;5.842;2023-07-13T03:04:00;15.60;90.10
39021;DHT22;25188;51.958;5.842;2023-07-13T03:06:25;15.60;90.30
39021;DHT22;25188;51.958;5.842;2023-07-13T03:08:55;15.60;90.20
39021;DHT22;25188;51.958;5.842;2023-07-13T03:11:21;15.60;90.30
39021;DHT22;25188;51.958;5.842;2023-07-13T03:13:47;15.50;90.40
39021;DHT22;25188;51.958;5.842;2023-07-13T03:16:13;15.50;90.50
39021;DHT22;25188;51.958;5.842;2023-07-13T03:18:41;15.50;90.70
39021;DHT22;25188;51.958;5.842;2023-07-13T03:21:07;15.40;90.60
39021;DHT22;25188;51.958;5.842;2023-07-13T03:23:33;15.40;90.80
39021;DHT22;25188;51.958;5.842;2023-07-13T03:26:07;15.40;90.70
39021;DHT22;25188;51.958;5.842;2023-07-13T03:28:34;15.30;90.80
39021;DHT22;25188;51.958;5.842;2023-07-13T03:31:14;15.30;91.00
39021;DHT22;25188;51.958;5.842;2023-07-13T03:33:41;15.30;90.90
39021;DHT22;25188;51.958;5.842;2023-07-13T03:36:12;15.30;91.10
39021;DHT22;25188;51.958;5.842;2023-07-13T03:38:38;15.30;91.10
39021;DHT22;25188;51.958;5.842;2023-07-13T03:41:04;15.30;91.30
39021;DHT22;25188;51.958;5.842;2023-07-13T03:43:29;15.20;91.30
39021;DHT22;25188;51.958;5.842;2023-07-13T03:45:55;15.20;91.40
39021;DHT22;25188;51.958;5.842;2023-07-13T03:48:21;15.20;91.40
39021;DHT22;25188;51.958;5.842;2023-07-13T03:50:48;15.20;91.60
39021;DHT22;25188;51.958;5.842;2023-07-13T03:53:14;15.20;91.70
39021;DHT22;25188;51.958;5.842;2023-07-13T03:55:40;15.10;91.70
39021;DHT22;25188;51.958;5.842;2023-07-13T03:58:26;15.10;91.80
39021;DHT22;25188;51.958;5.842;2023-07-13T04:00:53;15.10;91.90
39021;DHT22;25188;51.958;5.842;2023-07-13T04:03:18;15.10;92.20
39021;DHT22;25188;51.958;5.842;2023-07-13T04:05:44;15.10;92.20
39021;DHT22;25188;51.958;5.842;2023-07-13T04:08:10;15.10;92.20
39021;DHT22;25188;51.958;5.842;2023-07-13T04:10:35;15.10;92.50
39021;DHT22;25188;51.958;5.842;2023-07-13T04:13:01;15.10;92.30
39021;DHT22;25188;51.958;5.842;2023-07-13T04:15:29;15.10;92.70
39021;DHT22;25188;51.958;5.842;2023-07-13T04:17:56;15.10;92.60
39021;DHT22;25188;51.958;5.842;2023-07-13T04:20:21;15.10;92.70
39021;DHT22;25188;51.958;5.842;2023-07-13T04:22:47;15.20;92.80
39021;DHT22;25188;51.958;5.842;2023-07-13T04:25:13;15.20;92.80
39021;DHT22;25188;51.958;5.842;2023-07-13T04:27:38;15.20;93.20
39021;DHT22;25188;51.958;5.842;2023-07-13T04:30:06;15.20;93.30
39021;DHT22;25188;51.958;5.842;2023-07-13T04:32:32;15.20;93.40
39021;DHT22;25188;51.958;5.842;2023-07-13T04:34:58;15.30;93.40
39021;DHT22;25188;51.958;5.842;2023-07-13T04:37:26;15.30;93.70
39021;DHT22;25188;51.958;5.842;2023-07-13T04:39:52;15.30;93.90
39021;DHT22;25188;51.958;5.842;2023-07-13T04:42:17;15.30;94.00
39021;DHT22;25188;51.958;5.842;2023-07-13T04:44:50;15.30;94.10
39021;DHT22;25188;51.958;5.842;2023-07-13T04:47:17;15.40;94.10
39021;DHT22;25188;51.958;5.842;2023-07-13T04:49:42;15.30;94.40
39021;DHT22;25188;51.958;5.842;2023-07-13T04:52:08;15.30;94.40
39021;DHT22;25188;51.958;5.842;2023-07-13T04:54:35;15.30;94.70
39021;DHT22;25188;51.958;5.842;2023-07-13T04:57:00;15.40;94.60
39021;DHT22;25188;51.958;5.842;2023-07-13T04:59:26;15.40;94.80
39021;DHT22;25188;51.958;5.842;2023-07-13T05:01:53;15.40;95.20
39021;DHT22;25188;51.958;5.842;2023-07-13T05:04:18;15.40;95.30
39021;DHT22;25188;51.958;5.842;2023-07-13T05:06:44;15.50;95.30
39021;DHT22;25188;51.958;5.842;2023-07-13T05:09:10;15.50;95.30
39021;DHT22;25188;51.958;5.842;2023-07-13T05:11:35;15.60;95.50
39021;DHT22;25188;51.958;5.842;2023-07-13T05:14:01;15.60;95.80
39021;DHT22;25188;51.958;5.842;2023-07-13T05:16:27;15.70;96.00
39021;DHT22;25188;51.958;5.842;2023-07-13T05:18:53;15.70;95.80
39021;DHT22;25188;51.958;5.842;2023-07-13T05:21:19;15.80;95.80
39021;DHT22;25188;51.958;5.842;2023-07-13T05:23:45;15.90;96.00
39021;DHT22;25188;51.958;5.842;2023-07-13T05:26:11;15.90;96.00
39021;DHT22;25188;51.958;5.842;2023-07-13T05:28:38;16.00;96.00
39021;DHT22;25188;51.958;5.842;2023-07-13T05:31:04;16.00;96.10
39021;DHT22;25188;51.958;5.842;2023-07-13T05:33:30;16.10;96.10
39021;DHT22;25188;51.958;5.842;2023-07-13T05:35:56;16.10;96.20
39021;DHT22;25188;51.958;5.842;2023-07-13T05:38:22;16.20;96.40
39021;DHT22;25188;51.958;5.842;2023-07-13T05:40:48;16.20;96.40
39021;DHT22;25188;51.958;5.842;2023-07-13T05:43:14;16.30;96.40
39021;DHT22;25188;51.958;5.842;2023-07-13T05:45:40;16.30;96.40
39021;DHT22;25188;51.958;5.842;2023-07-13T05:48:06;16.40;96.50
39021;DHT22;25188;51.958;5.842;2023-07-13T05:50:32;16.50;96.70
39021;DHT22;25188;51.958;5.842;2023-07-13T05:52:57;16.50;96.40
39021;DHT22;25188;51.958;5.842;2023-07-13T05:55:24;16.60;96.40
39021;DHT22;25188;51.958;5.842;2023-07-13T05:57:50;16.60;96.50
39021;DHT22;25188;51.958;5.842;2023-07-13T06:00:16;16.60;96.50
39021;DHT22;25188;51.958;5.842;2023-07-13T06:02:42;16.70;96.60
39021;DHT22;25188;51.958;5.842;2023-07-13T06:05:08;16.70;96.70
39021;DHT22;25188;51.958;5.842;2023-07-13T06:07:34;16.70;96.80
39021;DHT22;25188;51.958;5.842;2023-07-13T06:10:00;16.80;96.80
39021;DHT22;25188;51.958;5.842;2023-07-13T06:12:26;16.80;96.80
39021;DHT22;25188;51.958;5.842;2023-07-13T06:14:51;16.90;96.80
39021;DHT22;25188;51.958;5.842;2023-07-13T06:17:23;17.00;97.10
39021;DHT22;25188;51.958;5.842;2023-07-13T06:19:49;17.00;96.90
39021;DHT22;25188;51.958;5.842;2023-07-13T06:22:14;17.10;96.90
39021;DHT22;25188;51.958;5.842;2023-07-13T06:24:40;17.20;96.90
39021;DHT22;25188;51.958;5.842;2023-07-13T06:27:05;17.20;97.00
39021;DHT22;25188;51.958;5.842;2023-07-13T06:29:31;17.30;96.90
39021;DHT22;25188;51.958;5.842;2023-07-13T06:31:57;17.40;96.90
39021;DHT22;25188;51.958;5.842;2023-07-13T06:34:22;17.40;96.90
39021;DHT22;25188;51.958;5.842;2023-07-13T06:36:48;17.50;96.90
39021;DHT22;25188;51.958;5.842;2023-07-13T06:39:14;17.60;96.90
39021;DHT22;25188;51.958;5.842;2023-07-13T06:41:39;17.70;96.90
39021;DHT22;25188;51.958;5.842;2023-07-13T06:44:05;17.80;96.80
39021;DHT22;25188;51.958;5.842;2023-07-13T06:46:32;17.90;96.60
39021;DHT22;25188;51.958;5.842;2023-07-13T06:48:57;17.90;96.40
39021;DHT22;25188;51.958;5.842;2023-07-13T06:51:23;17.90;96.40
39021;DHT22;25188;51.958;5.842;2023-07-13T06:53:49;18.00;96.40
39021;DHT22;25188;51.958;5.842;2023-07-13T06:56:15;18.10;96.40
39021;DHT22;25188;51.958;5.842;2023-07-13T06:58:41;18.20;96.40
39021;DHT22;25188;51.958;5.842;2023-07-13T07:01:07;18.30;96.20
39021;DHT22;25188;51.958;5.842;2023-07-13T07:03:32;18.40;96.10
39021;DHT22;25188;51.958;5.842;2023-07-13T07:06:06;18.50;95.80
39021;DHT22;25188;51.958;5.842;2023-07-13T07:08:34;18.60;95.60
39021;DHT22;25188;51.958;5.842;2023-07-13T07:10:59;18.70;95.40
39021;DHT22;25188;51.958;5.842;2023-07-13T07:13:25;18.70;95.30
39021;DHT22;25188;51.958;5.842;2023-07-13T07:15:50;18.80;95.00
39021;DHT22;25188;51.958;5.842;2023-07-13T07:18:17;18.80;94.70
39021;DHT22;25188;51.958;5.842;2023-07-13T07:20:42;18.80;94.60
39021;DHT22;25188;51.958;5.842;2023-07-13T07:23:08;18.70;94.40
39021;DHT22;25188;51.958;5.842;2023-07-13T07:25:34;18.80;94.50
39021;DHT22;25188;51.958;5.842;2023-07-13T07:28:02;18.80;94.40
39021;DHT22;25188;51.958;5.842;2023-07-13T07:30:28;18.80;94.20
39021;DHT22;25188;51.958;5.842;2023-07-13T07:32:54;18.90;94.10
39021;DHT22;25188;51.958;5.842;2023-07-13T07:35:19;19.00;93.90
39021;DHT22;25188;51.958;5.842;2023-07-13T07:37:45;19.00;93.80
39021;DHT22;25188;51.958;5.842;2023-07-13T07:40:11;19.10;93.80
39021;DHT22;25188;51.958;5.842;2023-07-13T07:42:36;19.10;93.70
39021;DHT22;25188;51.958;5.842;2023-07-13T07:45:02;19.20;93.60
39021;DHT22;25188;51.958;5.842;2023-07-13T07:47:28;19.30;93.50
39021;DHT22;25188;51.958;5.842;2023-07-13T07:49:53;19.40;93.40
39021;DHT22;25188;51.958;5.842;2023-07-13T07:52:19;19.50;93.20
39021;DHT22;25188;51.958;5.842;2023-07-13T07:54:45;19.50;92.90
39021;DHT22;25188;51.958;5.842;2023-07-13T07:57:10;19.50;92.70
39021;DHT22;25188;51.958;5.842;2023-07-13T07:59:37;19.50;92.60
39021;DHT22;25188;51.958;5.842;2023-07-13T08:02:03;19.60;92.50
39021;DHT22;25188;51.958;5.842;2023-07-13T08:04:29;19.60;92.40
39021;DHT22;25188;51.958;5.842;2023-07-13T08:06:55;19.70;92.40
39021;DHT22;25188;51.958;5.842;2023-07-13T08:09:21;19.70;92.10
39021;DHT22;25188;51.958;5.842;2023-07-13T08:11:47;19.80;92.10
39021;DHT22;25188;51.958;5.842;2023-07-13T08:14:13;19.90;92.00
39021;DHT22;25188;51.958;5.842;2023-07-13T08:16:39;20.00;91.90
39021;DHT22;25188;51.958;5.842;2023-07-13T08:19:04;20.10;91.80
39021;DHT22;25188;51.958;5.842;2023-07-13T08:21:31;20.20;91.50
39021;DHT22;25188;51.958;5.842;2023-07-13T08:23:57;20.30;91.30
39021;DHT22;25188;51.958;5.842;2023-07-13T08:26:22;20.30;91.00
39021;DHT22;25188;51.958;5.842;2023-07-13T08:28:48;20.30;90.60
39021;DHT22;25188;51.958;5.842;2023-07-13T08:31:14;20.40;90.30
39021;DHT22;25188;51.958;5.842;2023-07-13T08:33:40;20.40;90.30
39021;DHT22;25188;51.958;5.842;2023-07-13T08:36:06;20.40;90.20
39021;DHT22;25188;51.958;5.842;2023-07-13T08:38:33;20.50;89.50
39021;DHT22;25188;51.958;5.842;2023-07-13T08:40:58;20.60;89.50
39021;DHT22;25188;51.958;5.842;2023-07-13T08:43:30;20.70;89.00
39021;DHT22;25188;51.958;5.842;2023-07-13T08:46:13;20.80;88.70
39021;DHT22;25188;51.958;5.842;2023-07-13T08:48:46;20.90;88.20
39021;DHT22;25188;51.958;5.842;2023-07-13T08:51:41;20.90;88.00
39021;DHT22;25188;51.958;5.842;2023-07-13T08:54:28;20.90;87.70
39021;DHT22;25188;51.958;5.842;2023-07-13T08:56:56;20.90;86.00
39021;DHT22;25188;51.958;5.842;2023-07-13T08:59:25;20.80;85.20
39021;DHT22;25188;51.958;5.842;2023-07-13T09:02:20;20.80;85.10
39021;DHT22;25188;51.958;5.842;2023-07-13T09:04:53;20.90;84.90
39021;DHT22;25188;51.958;5.842;2023-07-13T09:07:41;20.90;83.80
39021;DHT22;25188;51.958;5.842;2023-07-13T09:10:19;21.00;80.80
39021;DHT22;25188;51.958;5.842;2023-07-13T09:15:38;21.20;81.00
39021;DHT22;25188;51.958;5.842;2023-07-13T09:18:26;21.30;80.50
39021;DHT22;25188;51.958;5.842;2023-07-13T09:21:03;21.40;79.00
39021;DHT22;25188;51.958;5.842;2023-07-13T09:23:31;21.50;79.30
39021;DHT22;25188;51.958;5.842;2023-07-13T09:26:06;21.60;78.80
39021;DHT22;25188;51.958;5.842;2023-07-13T09:28:39;21.60;78.10
39021;DHT22;25188;51.958;5.842;2023-07-13T09:31:14;21.70;77.80
39021;DHT22;25188;51.958;5.842;2023-07-13T09:33:40;21.60;77.90
39021;DHT22;25188;51.958;5.842;2023-07-13T09:36:29;21.40;78.90
39021;DHT22;25188;51.958;5.842;2023-07-13T09:39:24;21.20;80.20
39021;DHT22;25188;51.958;5.842;2023-07-13T09:44:35;20.60;82.90
39021;DHT22;25188;51.958;5.842;2023-07-13T09:47:02;20.30;84.10
39021;DHT22;25188;51.958;5.842;2023-07-13T09:49:35;20.30;85.30
39021;DHT22;25188;51.958;5.842;2023-07-13T09:52:04;20.20;86.50
39021;DHT22;25188;51.958;5.842;2023-07-13T09:54:34;20.10;87.80
39021;DHT22;25188;51.958;5.842;2023-07-13T09:57:02;20.10;88.20
39021;DHT22;25188;51.958;5.842;2023-07-13T09:59:35;20.20;88.30
39021;DHT22;25188;51.958;5.842;2023-07-13T10:02:02;20.20;88.70
39021;DHT22;25188;51.958;5.842;2023-07-13T10:04:34;20.30;88.30
39021;DHT22;25188;51.958;5.842;2023-07-13T10:07:08;20.30;88.00
39021;DHT22;25188;51.958;5.842;2023-07-13T10:09:34;20.40;88.10
39021;DHT22;25188;51.958;5.842;2023-07-13T10:12:00;20.40;87.90
39021;DHT22;25188;51.958;5.842;2023-07-13T10:14:29;20.40;87.80
39021;DHT22;25188;51.958;5.842;2023-07-13T10:17:01;20.60;88.10
39021;DHT22;25188;51.958;5.842;2023-07-13T10:19:31;20.70;87.80
39021;DHT22;25188;51.958;5.842;2023-07-13T10:22:00;20.80;87.50
39021;DHT22;25188;51.958;5.842;2023-07-13T10:24:34;21.00;86.60
39021;DHT22;25188;51.958;5.842;2023-07-13T10:27:15;21.20;86.30
39021;DHT22;25188;51.958;5.842;2023-07-13T10:29:48;21.30;84.90
39021;DHT22;25188;51.958;5.842;2023-07-13T10:32:15;21.40;83.40
39021;DHT22;25188;51.958;5.842;2023-07-13T10:34:44;21.40;81.10
39021;DHT22;25188;51.958;5.842;2023-07-13T10:37:23;21.30;80.20
39021;DHT22;25188;51.958;5.842;2023-07-13T10:39:51;21.30;79.10
39021;DHT22;25188;51.958;5.842;2023-07-13T10:42:27;21.20;79.40
39021;DHT22;25188;51.958;5.842;2023-07-13T10:44:53;21.00;83.30
39021;DHT22;25188;51.958;5.842;2023-07-13T10:47:19;20.70;88.80
39021;DHT22;25188;51.958;5.842;2023-07-13T10:49:46;20.00;91.00
39021;DHT22;25188;51.958;5.842;2023-07-13T10:52:42;19.50;92.10
39021;DHT22;25188;51.958;5.842;2023-07-13T10:55:31;19.30;93.40
39021;DHT22;25188;51.958;5.842;2023-07-13T10:58:28;19.50;94.60
39021;DHT22;25188;51.958;5.842;2023-07-13T11:03:50;20.30;98.10
39021;DHT22;25188;51.958;5.842;2023-07-13T11:12:55;21.00;99.90
39021;DHT22;25188;51.958;5.842;2023-07-13T11:17:38;21.50;99.90
39021;DHT22;25188;51.958;5.842;2023-07-13T11:22:49;21.80;98.00
39021;DHT22;25188;51.958;5.842;2023-07-13T11:39:23;22.10;92.70
39021;DHT22;25188;51.958;5.842;2023-07-13T11:41:34;22.70;91.00
39021;DHT22;25188;51.958;5.842;2023-07-13T11:44:28;23.40;89.10
39021;DHT22;25188;51.958;5.842;2023-07-13T11:46:57;24.00;86.40
39021;DHT22;25188;51.958;5.842;2023-07-13T11:49:28;24.60;86.40
39021;DHT22;25188;51.958;5.842;2023-07-13T11:51:57;25.10;82.10
39021;DHT22;25188;51.958;5.842;2023-07-13T11:54:30;25.10;78.20
39021;DHT22;25188;51.958;5.842;2023-07-13T11:56:59;24.90;75.20
39021;DHT22;25188;51.958;5.842;2023-07-13T11:59:27;24.50;72.10
39021;DHT22;25188;51.958;5.842;2023-07-13T12:01:55;23.90;72.70
39021;DHT22;25188;51.958;5.842;2023-07-13T12:04:26;23.40;76.90
39021;DHT22;25188;51.958;5.842;2023-07-13T12:07:03;22.80;78.40
39021;DHT22;25188;51.958;5.842;2023-07-13T12:09:28;22.30;79.90
39021;DHT22;25188;51.958;5.842;2023-07-13T12:11:57;22.00;81.40
39021;DHT22;25188;51.958;5.842;2023-07-13T12:14:24;21.90;82.40
39021;DHT22;25188;51.958;5.842;2023-07-13T12:16:52;22.00;82.80
39021;DHT22;25188;51.958;5.842;2023-07-13T12:19:22;22.10;82.90
39021;DHT22;25188;51.958;5.842;2023-07-13T12:21:48;22.20;83.50
39021;DHT22;25188;51.958;5.842;2023-07-13T12:24:19;22.50;84.60
39021;DHT22;25188;51.958;5.842;2023-07-13T12:26:50;23.10;85.20
39021;DHT22;25188;51.958;5.842;2023-07-13T12:29:17;23.90;85.40
39021;DHT22;25188;51.958;5.842;2023-07-13T12:31:46;24.70;84.80
39021;DHT22;25188;51.958;5.842;2023-07-13T12:34:17;25.60;80.90
39021;DHT22;25188;51.958;5.842;2023-07-13T12:37:10;26.30;77.80
39021;DHT22;25188;51.958;5.842;2023-07-13T12:39:45;27.00;73.50
39021;DHT22;25188;51.958;5.842;2023-07-13T12:42:28;27.60;71.60
39021;DHT22;25188;51.958;5.842;2023-07-13T12:45:26;27.90;66.20
39021;DHT22;25188;51.958;5.842;2023-07-13T12:48:37;27.70;63.50
39021;DHT22;25188;51.958;5.842;2023-07-13T12:50:50;27.20;62.60
39021;DHT22;25188;51.958;5.842;2023-07-13T12:53:28;26.40;62.70
39021;DHT22;25188;51.958;5.842;2023-07-13T12:55:58;25.90;63.40
39021;DHT22;25188;51.958;5.842;2023-07-13T12:58:36;25.30;64.80
39021;DHT22;25188;51.958;5.842;2023-07-13T13:01:02;25.10;65.10
39021;DHT22;25188;51.958;5.842;2023-07-13T13:03:33;25.40;65.20
39021;DHT22;25188;51.958;5.842;2023-07-13T13:06:20;25.90;64.40
39021;DHT22;25188;51.958;5.842;2023-07-13T13:08:49;26.50;60.70
39021;DHT22;25188;51.958;5.842;2023-07-13T13:11:16;27.00;61.50
39021;DHT22;25188;51.958;5.842;2023-07-13T13:13:42;27.50;58.40
39021;DHT22;25188;51.958;5.842;2023-07-13T13:16:17;27.60;56.40
39021;DHT22;25188;51.958;5.842;2023-07-13T13:18:45;27.70;57.00
39021;DHT22;25188;51.958;5.842;2023-07-13T13:21:11;27.90;55.50
39021;DHT22;25188;51.958;5.842;2023-07-13T13:23:37;28.20;55.80
39021;DHT22;25188;51.958;5.842;2023-07-13T13:26:03;28.30;54.30
39021;DHT22;25188;51.958;5.842;2023-07-13T13:28:31;28.00;54.30
39021;DHT22;25188;51.958;5.842;2023-07-13T13:30:57;27.70;54.60
39021;DHT22;25188;51.958;5.842;2023-07-13T13:33:23;27.50;54.80
39021;DHT22;25188;51.958;5.842;2023-07-13T13:35:49;27.40;54.60
39021;DHT22;25188;51.958;5.842;2023-07-13T13:38:17;27.50;54.80
39021;DHT22;25188;51.958;5.842;2023-07-13T13:40:45;27.60;54.50
39021;DHT22;25188;51.958;5.842;2023-07-13T13:43:20;27.50;54.00
39021;DHT22;25188;51.958;5.842;2023-07-13T13:45:46;27.80;53.60
39021;DHT22;25188;51.958;5.842;2023-07-13T13:48:17;28.10;52.90
39021;DHT22;25188;51.958;5.842;2023-07-13T13:50:44;28.30;51.80
39021;DHT22;25188;51.958;5.842;2023-07-13T13:53:11;28.00;51.00
39021;DHT22;25188;51.958;5.842;2023-07-13T13:55:38;27.60;51.70
39021;DHT22;25188;51.958;5.842;2023-07-13T13:58:04;27.50;52.60
39021;DHT22;25188;51.958;5.842;2023-07-13T14:00:30;27.80;53.30
39021;DHT22;25188;51.958;5.842;2023-07-13T14:02:56;28.10;52.30
39021;DHT22;25188;51.958;5.842;2023-07-13T14:05:24;28.40;52.00
39021;DHT22;25188;51.958;5.842;2023-07-13T14:07:53;28.70;51.50
39021;DHT22;25188;51.958;5.842;2023-07-13T14:10:20;28.80;50.80
39021;DHT22;25188;51.958;5.842;2023-07-13T14:12:51;28.60;50.40
39021;DHT22;25188;51.958;5.842;2023-07-13T14:15:28;28.20;50.40
39021;DHT22;25188;51.958;5.842;2023-07-13T14:17:56;27.80;51.30
39021;DHT22;25188;51.958;5.842;2023-07-13T14:20:24;27.90;52.10
39021;DHT22;25188;51.958;5.842;2023-07-13T14:22:51;28.10;51.60
39021;DHT22;25188;51.958;5.842;2023-07-13T14:25:18;28.00;51.90
39021;DHT22;25188;51.958;5.842;2023-07-13T14:27:45;27.80;50.30
39021;DHT22;25188;51.958;5.842;2023-07-13T14:30:22;27.70;50.80
39021;DHT22;25188;51.958;5.842;2023-07-13T14:32:48;27.70;51.10
39021;DHT22;25188;51.958;5.842;2023-07-13T14:35:17;27.50;51.80
39021;DHT22;25188;51.958;5.842;2023-07-13T14:37:44;27.30;51.90
39021;DHT22;25188;51.958;5.842;2023-07-13T14:40:15;26.90;51.90
39021;DHT22;25188;51.958;5.842;2023-07-13T14:42:42;26.50;52.60
39021;DHT22;25188;51.958;5.842;2023-07-13T14:45:16;26.20;53.30
39021;DHT22;25188;51.958;5.842;2023-07-13T14:47:42;25.90;53.60
39021;DHT22;25188;51.958;5.842;2023-07-13T14:52:38;25.40;54.50
39021;DHT22;25188;51.958;5.842;2023-07-13T14:55:10;25.20;55.10
39021;DHT22;25188;51.958;5.842;2023-07-13T14:57:35;25.00;55.70
39021;DHT22;25188;51.958;5.842;2023-07-13T15:00:01;24.90;56.10
39021;DHT22;25188;51.958;5.842;2023-07-13T15:02:29;24.80;55.90
39021;DHT22;25188;51.958;5.842;2023-07-13T15:04:55;24.70;56.30
39021;DHT22;25188;51.958;5.842;2023-07-13T15:07:21;24.60;56.60
39021;DHT22;25188;51.958;5.842;2023-07-13T15:09:48;24.60;56.50
39021;DHT22;25188;51.958;5.842;2023-07-13T15:12:14;24.50;56.60
39021;DHT22;25188;51.958;5.842;2023-07-13T15:14:40;24.40;56.60
39021;DHT22;25188;51.958;5.842;2023-07-13T15:17:28;24.20;57.00
39021;DHT22;25188;51.958;5.842;2023-07-13T15:19:57;24.10;57.20
39021;DHT22;25188;51.958;5.842;2023-07-13T15:22:22;23.90;57.80
39021;DHT22;25188;51.958;5.842;2023-07-13T15:24:49;23.80;59.00
39021;DHT22;25188;51.958;5.842;2023-07-13T15:27:14;23.70;58.60
39021;DHT22;25188;51.958;5.842;2023-07-13T15:29:40;23.60;58.90
39021;DHT22;25188;51.958;5.842;2023-07-13T15:32:17;23.40;59.50
39021;DHT22;25188;51.958;5.842;2023-07-13T15:34:44;23.40;59.90
39021;DHT22;25188;51.958;5.842;2023-07-13T15:37:15;23.30;60.40
39021;DHT22;25188;51.958;5.842;2023-07-13T15:39:46;23.20;60.70
39021;DHT22;25188;51.958;5.842;2023-07-13T15:42:19;23.20;61.20
39021;DHT22;25188;51.958;5.842;2023-07-13T15:44:45;23.00;61.00
39021;DHT22;25188;51.958;5.842;2023-07-13T15:47:13;23.00;61.20
39021;DHT22;25188;51.958;5.842;2023-07-13T15:49:40;23.00;61.40
39021;DHT22;25188;51.958;5.842;2023-07-13T15:52:17;23.00;61.60
39021;DHT22;25188;51.958;5.842;2023-07-13T15:54:44;23.00;62.50
39021;DHT22;25188;51.958;5.842;2023-07-13T15:57:09;23.00;63.10
39021;DHT22;25188;51.958;5.842;2023-07-13T15:59:37;23.10;63.20
39021;DHT22;25188;51.958;5.842;2023-07-13T16:02:17;23.20;63.40
39021;DHT22;25188;51.958;5.842;2023-07-13T16:04:44;23.30;63.20
39021;DHT22;25188;51.958;5.842;2023-07-13T16:07:10;23.50;62.70
39021;DHT22;25188;51.958;5.842;2023-07-13T16:09:39;23.50;62.30
39021;DHT22;25188;51.958;5.842;2023-07-13T16:12:10;23.60;61.90
39021;DHT22;25188;51.958;5.842;2023-07-13T16:14:37;23.60;61.60
39021;DHT22;25188;51.958;5.842;2023-07-13T16:17:03;23.70;61.70
39021;DHT22;25188;51.958;5.842;2023-07-13T16:19:29;23.70;61.60